Time;durP1;ratioP1;P1;durP2;ratioP2;P2;SDS_P1;SDS_P2;PMS_P1;PMS_P2;Temp;Humidity;BMP_temperature;BMP_pressure;BME280_temperature;BME280_humidity;BME280_pressure;Samples;Min_cycle;Max_cycle;Signal;HPM_P1;HPM_P2
2023/08/27 00:00:56;;;;;;;10.63;6.25;;;;;;;16.26;100.00;100951.19;5014224;28;20039;-65
2023/08/27 00:03:22;;;;;;;11.10;6.30;;;;;;;16.28;100.00;100952.00;5028831;28;20049;-63
2023/08/27 00:05:47;;;;;;;12.32;5.40;;;;;;;16.35;100.00;100960.50;5027889;28;20026;-65
2023/08/27 00:08:13;;;;;;;11.70;6.07;;;;;;;16.36;100.00;100959.53;5022903;28;20132;-64
2023/08/27 00:10:38;;;;;;;13.98;5.35;;;;;;;16.37;100.00;100953.28;5028103;28;20041;-61
2023/08/27 00:13:04;;;;;;;11.35;6.10;;;;;;;16.38;100.00;100954.13;5008862;28;20036;-65
2023/08/27 00:15:29;;;;;;;8.27;5.75;;;;;;;16.45;100.00;100949.31;5028493;28;20341;-65
2023/08/27 00:17:54;;;;;;;8.02;5.88;;;;;;;16.45;100.00;100950.19;5027487;28;20029;-64
2023/08/27 00:20:20;;;;;;;6.45;5.20;;;;;;;16.45;100.00;100944.84;5013740;28;20038;-62
2023/08/27 00:22:45;;;;;;;6.95;5.88;;;;;;;16.36;100.00;100950.69;5008506;28;20101;-63
2023/08/27 00:25:11;;;;;;;7.93;4.82;;;;;;;16.37;100.00;100942.63;5007483;28;20469;-65
2023/08/27 00:27:36;;;;;;;11.63;5.47;;;;;;;16.39;100.00;100932.78;5007655;28;20057;-58
2023/08/27 00:30:04;;;;;;;9.27;5.97;;;;;;;16.38;100.00;100939.00;5008155;28;20017;-65
2023/08/27 00:32:33;;;;;;;12.05;6.30;;;;;;;16.40;100.00;100946.91;5007513;28;20040;-63
2023/08/27 00:34:59;;;;;;;7.40;6.03;;;;;;;16.36;100.00;100942.72;5008045;28;20113;-64
2023/08/27 00:37:25;;;;;;;9.75;5.72;;;;;;;16.37;100.00;100944.41;5007011;28;20054;-64
2023/08/27 00:39:50;;;;;;;9.00;5.95;;;;;;;16.34;100.00;100936.66;5007482;28;20072;-65
2023/08/27 00:42:15;;;;;;;10.45;5.72;;;;;;;16.30;100.00;100925.31;5006062;28;20030;-67
2023/08/27 00:44:41;;;;;;;8.35;5.63;;;;;;;16.25;100.00;100919.38;4989481;28;20132;-58
2023/08/27 00:47:06;;;;;;;11.98;5.97;;;;;;;16.22;100.00;100917.78;5014690;28;20044;-65
2023/08/27 00:49:32;;;;;;;12.93;5.65;;;;;;;16.22;100.00;100911.63;5025886;28;20536;-65
2023/08/27 00:51:58;;;;;;;9.13;5.47;;;;;;;16.16;100.00;100916.31;5003246;28;20029;-62
2023/08/27 00:54:24;;;;;;;11.00;6.63;;;;;;;16.04;100.00;100909.91;5007196;28;20691;-63
2023/08/27 00:56:50;;;;;;;12.52;5.55;;;;;;;16.06;100.00;100896.53;4989071;28;20057;-62
2023/08/27 00:59:16;;;;;;;12.27;6.95;;;;;;;15.91;100.00;100900.84;5008407;28;20543;-65
2023/08/27 01:01:42;;;;;;;20.38;6.32;;;;;;;15.87;100.00;100886.88;5006998;28;21085;-64
2023/08/27 01:04:07;;;;;;;7.97;5.47;;;;;;;15.87;100.00;100886.88;5007649;28;20052;-63
2023/08/27 01:06:33;;;;;;;8.07;5.80;;;;;;;15.88;100.00;100893.06;5017043;28;20103;-64
2023/08/27 01:09:17;;;;;;;11.00;6.03;;;;;;;15.87;100.00;100889.53;5026719;28;20033;-65
2023/08/27 01:12:00;;;;;;;8.48;5.97;;;;;;;15.90;100.00;100891.19;5026530;28;21312;-63
2023/08/27 01:14:27;;;;;;;13.35;5.97;;;;;;;15.88;100.00;100885.09;5028277;28;20524;-64
2023/08/27 01:16:53;;;;;;;10.18;6.00;;;;;;;15.89;100.00;100890.31;5016706;28;20034;-59
2023/08/27 01:19:18;;;;;;;12.52;6.78;;;;;;;15.86;100.00;100893.13;5007776;28;20073;-65
2023/08/27 01:21:44;;;;;;;6.97;5.93;;;;;;;15.89;100.00;100889.44;5006294;28;20026;-63
2023/08/27 01:24:10;;;;;;;11.68;6.60;;;;;;;15.87;100.00;100892.19;5007725;28;20037;-64
2023/08/27 01:26:41;;;;;;;10.65;7.00;;;;;;;15.81;100.00;100887.25;5010861;28;20400;-65
2023/08/27 01:29:40;;;;;;;12.00;6.18;;;;;;;15.88;100.00;100877.13;5026871;28;20033;-64
2023/08/27 01:32:08;;;;;;;11.98;6.60;;;;;;;15.90;100.00;100884.03;5016720;28;20512;-63
2023/08/27 01:34:35;;;;;;;8.93;6.10;;;;;;;15.94;100.00;100873.25;5007372;28;20439;-65
2023/08/27 01:37:00;;;;;;;13.02;6.25;;;;;;;15.98;100.00;100877.50;4994958;28;20025;-62
2023/08/27 01:39:25;;;;;;;7.22;5.70;;;;;;;15.92;100.00;100868.88;5008736;28;20029;-58
2023/08/27 01:41:51;;;;;;;9.10;6.97;;;;;;;15.97;100.00;100865.13;5021888;28;20101;-66
2023/08/27 01:44:17;;;;;;;7.20;6.13;;;;;;;15.96;100.00;100869.63;5007202;28;20041;-64
2023/08/27 01:46:43;;;;;;;9.65;7.22;;;;;;;15.87;100.00;100870.94;5008004;28;20034;-65
2023/08/27 01:49:08;;;;;;;9.02;6.40;;;;;;;15.90;100.00;100870.75;5026447;28;20033;-64
2023/08/27 01:51:33;;;;;;;11.30;6.60;;;;;;;15.94;100.00;100871.47;5025960;28;20017;-52
2023/08/27 01:53:59;;;;;;;8.82;6.68;;;;;;;15.94;100.00;100859.97;5006887;28;20029;-65
2023/08/27 01:56:24;;;;;;;11.35;7.00;;;;;;;15.94;100.00;100859.97;5005367;28;20048;-64
2023/08/27 01:58:50;;;;;;;8.13;6.47;;;;;;;15.96;100.00;100868.72;5011992;28;20034;-60
2023/08/27 02:01:15;;;;;;;11.90;6.50;;;;;;;15.98;100.00;100862.41;5006711;28;20037;-64
2023/08/27 02:03:40;;;;;;;7.15;6.18;;;;;;;16.03;100.00;100868.31;5005350;28;20057;-62
2023/08/27 02:06:06;;;;;;;9.13;6.72;;;;;;;16.05;100.00;100876.22;4988807;28;20030;-64
2023/08/27 02:08:31;;;;;;;10.27;6.15;;;;;;;16.08;100.00;100881.34;5008318;28;20076;-64
2023/08/27 02:10:56;;;;;;;10.05;6.30;;;;;;;16.11;100.00;100875.00;5026788;28;20047;-62
2023/08/27 02:13:22;;;;;;;9.73;6.05;;;;;;;16.17;100.00;100877.31;5023850;28;20029;-58
2023/08/27 02:15:47;;;;;;;11.30;6.85;;;;;;;16.25;100.00;100868.88;5007587;28;20030;-61
2023/08/27 02:18:12;;;;;;;9.70;6.38;;;;;;;16.28;100.00;100864.25;5005948;28;20711;-63
2023/08/27 02:20:38;;;;;;;11.05;6.45;;;;;;;16.31;100.00;100867.69;5006453;28;20117;-62
2023/08/27 02:23:03;;;;;;;6.95;6.25;;;;;;;16.34;100.00;100854.22;5005860;28;20038;-64
2023/08/27 02:25:29;;;;;;;7.03;6.10;;;;;;;16.29;100.00;100857.16;5006357;28;20026;-61
2023/08/27 02:27:54;;;;;;;10.77;6.47;;;;;;;16.26;100.00;100849.34;5005116;28;20032;-62
2023/08/27 02:30:19;;;;;;;13.52;6.10;;;;;;;16.30;100.00;100856.19;4989877;28;20032;-63
2023/08/27 02:32:45;;;;;;;11.10;5.57;;;;;;;16.34;100.00;100857.72;5011438;28;20038;-59
2023/08/27 02:35:10;;;;;;;10.05;5.60;;;;;;;16.35;100.00;100863.91;5030437;28;20030;-65
2023/08/27 02:37:35;;;;;;;9.90;5.30;;;;;;;16.37;100.00;100872.63;5028707;28;20473;-63
2023/08/27 02:40:01;;;;;;;13.90;6.05;;;;;;;16.41;100.00;100872.38;5013620;28;20515;-62
2023/08/27 02:42:26;;;;;;;9.35;5.05;;;;;;;16.45;100.00;100866.88;5008636;28;20101;-63
2023/08/27 02:44:52;;;;;;;9.90;5.80;;;;;;;16.42;100.00;100876.75;5021218;28;20026;-60
2023/08/27 02:47:18;;;;;;;10.80;5.85;;;;;;;16.41;100.00;100868.88;5029551;28;20075;-64
2023/08/27 02:49:44;;;;;;;8.25;5.50;;;;;;;16.42;100.00;100865.25;5018019;28;20034;-66
2023/08/27 02:52:09;;;;;;;7.63;4.82;;;;;;;16.41;100.00;100866.22;5009822;28;20116;-63
2023/08/27 02:54:34;;;;;;;9.00;5.60;;;;;;;16.42;100.00;100860.81;5008562;28;20069;-58
2023/08/27 02:57:00;;;;;;;7.25;5.13;;;;;;;16.38;100.00;100864.56;5008413;28;20072;-62
2023/08/27 02:59:25;;;;;;;9.68;5.15;;;;;;;16.35;100.00;100870.09;5008560;28;20034;-56
2023/08/27 03:01:52;;;;;;;14.85;5.35;;;;;;;16.35;100.00;100862.13;5009123;28;20514;-65
2023/08/27 03:04:17;;;;;;;9.63;5.30;;;;;;;16.38;100.00;100863.72;5021829;28;20045;-62
2023/08/27 03:06:43;;;;;;;7.97;5.25;;;;;;;16.41;100.00;100869.69;5028328;28;20526;-61
2023/08/27 03:09:08;;;;;;;12.02;5.03;;;;;;;16.48;100.00;100874.66;5027362;28;20033;-63
2023/08/27 03:11:33;;;;;;;10.55;5.25;;;;;;;16.46;100.00;100865.94;5027965;28;20044;-64
2023/08/27 03:13:59;;;;;;;10.43;5.03;;;;;;;16.47;100.00;100871.19;5018805;28;20036;-58
2023/08/27 03:16:24;;;;;;;10.75;4.85;;;;;;;16.50;100.00;100862.16;5008748;28;20052;-65
2023/08/27 03:18:49;;;;;;;8.35;4.57;;;;;;;16.50;100.00;100860.31;5012287;28;20080;-63
2023/08/27 03:21:15;;;;;;;11.27;4.80;;;;;;;16.48;100.00;100869.34;5028808;28;20468;-60
2023/08/27 03:23:40;;;;;;;11.73;5.20;;;;;;;16.52;100.00;100860.25;5025433;28;20049;-64
2023/08/27 03:26:05;;;;;;;10.25;4.78;;;;;;;16.55;100.00;100870.69;5008887;28;20029;-63
2023/08/27 03:28:31;;;;;;;11.15;5.13;;;;;;;16.56;100.00;100888.41;5008719;28;20079;-65
2023/08/27 03:30:56;;;;;;;8.00;3.60;;;;;;;16.42;100.00;100897.16;5009101;28;20026;-66
2023/08/27 03:33:22;;;;;;;7.97;1.88;;;;;;;16.33;100.00;100924.28;5008939;28;20109;-63
2023/08/27 03:35:55;;;;;;;8.63;1.88;;;;;;;16.24;100.00;100917.69;5025808;28;20033;-64
2023/08/27 03:38:20;;;;;;;6.97;2.40;;;;;;;16.08;100.00;100899.09;5028452;28;20033;-65
2023/08/27 03:40:49;;;;;;;12.25;2.42;;;;;;;15.78;100.00;100898.03;5016096;28;20026;-58
2023/08/27 03:43:14;;;;;;;9.45;2.22;;;;;;;15.62;100.00;100892.72;5008230;28;20453;-59
2023/08/27 03:45:40;;;;;;;9.27;2.60;;;;;;;15.44;100.00;100898.06;5009510;28;20117;-67
2023/08/27 03:48:05;;;;;;;10.95;1.85;;;;;;;15.34;100.00;100887.06;5009177;28;20030;-64
2023/08/27 03:50:31;;;;;;;11.40;2.22;;;;;;;15.20;100.00;100881.66;5009773;28;20030;-64
2023/08/27 03:52:57;;;;;;;8.63;1.70;;;;;;;15.15;100.00;100877.41;5019460;28;20571;-66
2023/08/27 03:55:22;;;;;;;6.18;1.20;;;;;;;15.11;100.00;100878.53;5007577;28;20423;-59
2023/08/27 03:57:48;;;;;;;5.75;1.20;;;;;;;15.01;100.00;100864.91;5008088;28;20030;-62
2023/08/27 04:00:13;;;;;;;4.80;1.35;;;;;;;14.93;100.00;100871.53;5007643;28;20119;-66
2023/08/27 04:02:39;;;;;;;5.55;1.50;;;;;;;14.84;100.00;100860.47;5006707;28;20129;-65
2023/08/27 04:05:05;;;;;;;9.15;1.50;;;;;;;14.73;100.00;100858.34;5007252;28;20084;-66
2023/08/27 04:07:31;;;;;;;5.55;1.40;;;;;;;14.75;100.00;100851.16;5006876;28;20088;-66
2023/08/27 04:09:57;;;;;;;1.90;1.00;;;;;;;14.75;100.00;100847.66;5006922;28;20034;-59
2023/08/27 04:12:22;;;;;;;3.00;1.35;;;;;;;14.64;100.00;100849.06;5006335;28;20528;-61
2023/08/27 04:14:47;;;;;;;2.53;1.15;;;;;;;14.68;100.00;100841.78;4990270;28;20037;-65
2023/08/27 04:17:13;;;;;;;5.15;1.30;;;;;;;14.68;100.00;100840.94;5007055;28;20029;-67
2023/08/27 04:19:38;;;;;;;7.10;1.15;;;;;;;14.62;100.00;100845.63;5007798;28;20029;-67
2023/08/27 04:22:03;;;;;;;3.00;1.30;;;;;;;14.64;100.00;100848.19;5006719;28;20030;-61
2023/08/27 04:24:29;;;;;;;1.35;1.10;;;;;;;14.60;100.00;100851.94;5007131;28;20029;-66
2023/08/27 04:26:55;;;;;;;3.90;1.25;;;;;;;14.63;100.00;100851.81;5006122;28;20029;-67
2023/08/27 04:29:21;;;;;;;5.60;1.20;;;;;;;14.60;100.00;100857.25;5007305;28;20072;-64
2023/08/27 04:31:46;;;;;;;4.43;1.35;;;;;;;14.56;100.00;100856.53;5013022;28;20118;-67
2023/08/27 04:34:12;;;;;;;7.28;1.38;;;;;;;14.50;100.00;100859.50;5027507;28;20029;-67
2023/08/27 04:36:37;;;;;;;2.40;1.20;;;;;;;14.51;100.00;100853.28;5025730;28;20079;-60
2023/08/27 04:39:03;;;;;;;4.95;1.88;;;;;;;14.54;100.00;100861.06;5027337;28;20561;-65
2023/08/27 04:41:28;;;;;;;6.70;1.52;;;;;;;14.57;100.00;100854.75;5023517;28;20032;-64
2023/08/27 04:43:53;;;;;;;3.65;1.30;;;;;;;14.58;100.00;100862.63;5026870;28;20108;-65
2023/08/27 04:46:19;;;;;;;3.95;1.40;;;;;;;14.61;100.00;100865.13;5026831;28;20029;-64
2023/08/27 04:48:44;;;;;;;5.07;1.88;;;;;;;14.64;100.00;100859.69;5012685;28;20121;-65
2023/08/27 04:51:10;;;;;;;7.10;1.65;;;;;;;14.65;100.00;100850.78;5025891;28;20033;-65
2023/08/27 04:53:35;;;;;;;5.63;1.38;;;;;;;14.62;100.00;100856.22;5025991;28;20067;-65
2023/08/27 04:56:00;;;;;;;5.50;1.40;;;;;;;14.60;100.00;100852.78;5009184;28;20116;-64
2023/08/27 04:58:26;;;;;;;3.05;1.23;;;;;;;14.62;100.00;100858.00;4988929;28;20029;-64
2023/08/27 05:00:53;;;;;;;2.75;1.33;;;;;;;14.66;100.00;100856.94;5006129;28;20025;-68
2023/08/27 05:03:19;;;;;;;4.35;1.50;;;;;;;14.65;100.00;100856.09;5007175;28;20099;-67
2023/08/27 05:05:44;;;;;;;2.28;1.30;;;;;;;14.64;100.00;100859.69;5005196;28;20021;-64
2023/08/27 05:08:10;;;;;;;5.38;1.52;;;;;;;14.61;100.00;100862.47;5007462;28;20030;-61
2023/08/27 05:10:35;;;;;;;4.75;1.70;;;;;;;14.61;100.00;100861.63;5005765;28;20565;-66
2023/08/27 05:13:00;;;;;;;7.72;1.80;;;;;;;14.62;100.00;100864.19;5007188;28;20036;-65
2023/08/27 05:15:26;;;;;;;5.97;1.80;;;;;;;14.61;100.00;100865.13;5006545;28;20033;-63
2023/08/27 05:17:51;;;;;;;4.72;1.65;;;;;;;14.64;100.00;100869.41;5007495;28;20034;-66
2023/08/27 05:20:17;;;;;;;6.47;2.00;;;;;;;14.64;100.00;100875.59;4989449;28;20080;-66
2023/08/27 05:22:42;;;;;;;7.47;2.10;;;;;;;14.64;100.00;100864.97;5003955;28;20113;-62
2023/08/27 05:25:09;;;;;;;4.10;1.70;;;;;;;14.61;100.00;100865.13;5009691;28;20028;-66
2023/08/27 05:27:34;;;;;;;6.72;2.25;;;;;;;14.58;100.00;100864.41;5012993;28;20061;-66
2023/08/27 05:29:59;;;;;;;5.00;2.33;;;;;;;14.57;100.00;100868.84;5007969;28;20049;-65
2023/08/27 05:32:25;;;;;;;3.85;1.90;;;;;;;14.56;100.00;100863.63;5016450;28;20473;-66
2023/08/27 05:34:50;;;;;;;2.80;1.75;;;;;;;14.60;100.00;100863.41;5028408;28;20483;-66
2023/08/27 05:37:15;;;;;;;10.07;2.00;;;;;;;14.63;100.00;100862.41;5026475;28;20034;-60
2023/08/27 05:39:41;;;;;;;6.18;2.00;;;;;;;14.66;100.00;100863.09;5019124;28;20113;-66
2023/08/27 05:42:06;;;;;;;4.57;2.15;;;;;;;14.71;100.00;100854.91;5008152;28;20022;-65
2023/08/27 05:44:31;;;;;;;4.28;1.98;;;;;;;14.76;100.00;100846.72;5006636;28;20115;-65
2023/08/27 05:46:57;;;;;;;7.43;1.73;;;;;;;14.82;100.00;100849.09;5006051;28;20519;-66
2023/08/27 05:49:22;;;;;;;5.45;1.70;;;;;;;14.86;100.00;100836.50;5005803;28;20030;-59
2023/08/27 05:51:48;;;;;;;5.78;2.00;;;;;;;14.90;100.00;100833.63;5011491;28;20116;-67
2023/08/27 05:54:13;;;;;;;7.25;2.00;;;;;;;14.99;100.00;100829.63;5027124;28;20022;-66
2023/08/27 05:56:39;;;;;;;2.92;1.60;;;;;;;15.00;100.00;100830.50;5022622;28;20032;-66
2023/08/27 05:59:04;;;;;;;4.88;1.75;;;;;;;15.09;100.00;100827.34;4989311;28;20030;-62
2023/08/27 06:01:29;;;;;;;5.80;1.38;;;;;;;15.15;100.00;100832.31;5005720;28;20029;-65
2023/08/27 06:03:55;;;;;;;4.72;1.63;;;;;;;15.19;100.00;100829.50;5006902;28;20041;-66
2023/08/27 06:06:21;;;;;;;6.22;1.85;;;;;;;15.24;100.00;100819.50;5006851;28;20030;-69
2023/08/27 06:08:46;;;;;;;4.88;1.85;;;;;;;15.38;100.00;100813.44;5012145;28;20030;-63
2023/08/27 06:11:12;;;;;;;7.35;2.20;;;;;;;15.52;100.00;100807.34;5009140;28;20109;-64
2023/08/27 06:13:37;;;;;;;6.43;3.53;;;;;;;15.64;100.00;100812.00;5011160;28;20071;-64
2023/08/27 06:16:03;;;;;;;4.60;2.95;;;;;;;15.88;100.00;100819.53;5030605;28;20125;-64
2023/08/27 06:18:28;;;;;;;6.00;2.80;;;;;;;15.99;100.00;100815.44;5028604;28;20066;-69
2023/08/27 06:20:54;;;;;;;6.22;3.75;;;;;;;16.01;100.00;100825.03;5029826;28;20387;-66
2023/08/27 06:23:19;;;;;;;6.13;3.70;;;;;;;16.15;100.00;100829.56;5008851;28;20026;-64
2023/08/27 06:25:44;;;;;;;6.25;3.53;;;;;;;16.23;100.00;100834.44;5009096;28;20176;-63
2023/08/27 06:28:10;;;;;;;9.40;4.43;;;;;;;16.39;100.00;100825.53;5012880;28;20034;-65
2023/08/27 06:30:40;;;;;;;8.93;4.40;;;;;;;16.52;100.00;100828.31;5001043;28;20037;-65
2023/08/27 06:33:05;;;;;;;6.82;4.50;;;;;;;16.76;100.00;100833.13;5004824;28;20476;-65
2023/08/27 06:35:30;;;;;;;15.35;5.55;;;;;;;16.87;100.00;100833.34;5008689;28;20018;-66
2023/08/27 06:37:56;;;;;;;13.93;5.38;;;;;;;17.12;100.00;100833.66;5000429;28;20027;-65
2023/08/27 06:40:21;;;;;;;8.60;5.20;;;;;;;17.35;100.00;100842.91;4996629;28;20024;-60
2023/08/27 06:42:47;;;;;;;8.93;5.00;;;;;;;17.65;100.00;100841.91;5007546;28;20022;-67
2023/08/27 06:45:12;;;;;;;10.60;5.05;;;;;;;17.78;100.00;100847.28;5007430;28;20049;-67
2023/08/27 06:47:37;;;;;;;7.82;4.25;;;;;;;18.03;100.00;100843.03;5008510;28;20057;-64
2023/08/27 06:50:04;;;;;;;8.52;4.30;;;;;;;18.28;100.00;100844.13;5011646;28;20391;-64
2023/08/27 06:52:31;;;;;;;12.95;4.55;;;;;;;18.39;100.00;100843.38;5009541;28;20044;-64
2023/08/27 06:54:58;;;;;;;10.18;5.63;;;;;;;18.51;100.00;100841.69;5007603;28;20046;-64
2023/08/27 06:57:23;;;;;;;14.20;6.45;;;;;;;18.60;100.00;100834.03;4988875;28;20507;-66
2023/08/27 06:59:48;;;;;;;12.75;6.65;;;;;;;18.56;100.00;100844.06;5008186;28;20034;-62
2023/08/27 07:02:14;;;;;;;11.50;7.05;;;;;;;18.33;100.00;100843.78;5008301;28;20491;-70
2023/08/27 07:04:39;;;;;;;10.50;7.32;;;;;;;18.38;100.00;100846.16;5007603;28;20507;-59
2023/08/27 07:07:04;;;;;;;13.45;7.53;;;;;;;18.52;100.00;100847.91;5021678;28;20048;-63
2023/08/27 07:09:30;;;;;;;12.13;7.68;;;;;;;18.68;100.00;100840.56;5028430;28;20029;-66
2023/08/27 07:11:55;;;;;;;13.38;7.80;;;;;;;18.65;100.00;100839.91;5025260;28;20512;-64
2023/08/27 07:14:20;;;;;;;10.90;6.88;;;;;;;19.08;100.00;100836.09;5027688;28;20029;-62
2023/08/27 07:16:46;;;;;;;8.55;6.07;;;;;;;19.42;100.00;100841.72;5026489;28;20100;-66
2023/08/27 07:19:11;;;;;;;10.95;6.57;;;;;;;19.68;100.00;100836.31;5028538;28;20068;-63
2023/08/27 07:21:37;;;;;;;6.18;4.70;;;;;;;19.70;100.00;100846.91;5026374;28;20472;-63
2023/08/27 07:24:03;;;;;;;9.20;3.40;;;;;;;19.85;100.00;100834.22;5028465;28;20117;-61
2023/08/27 07:26:29;;;;;;;4.05;2.38;;;;;;;19.62;100.00;100826.06;5005741;28;20052;-61
2023/08/27 07:28:56;;;;;;;4.50;2.30;;;;;;;19.46;100.00;100831.69;5008724;28;20113;-64
2023/08/27 07:31:21;;;;;;;4.55;1.90;;;;;;;19.38;100.00;100826.88;4989134;28;20055;-62
2023/08/27 07:33:47;;;;;;;2.85;1.50;;;;;;;19.15;100.00;100826.69;5021998;28;20044;-62
2023/08/27 07:36:12;;;;;;;3.33;1.00;;;;;;;19.14;100.00;100816.97;5027580;28;20487;-64
2023/08/27 07:38:41;;;;;;;2.95;1.58;;;;;;;19.21;100.00;100796.03;4998617;28;20026;-61
2023/08/27 07:41:10;;;;;;;2.50;1.25;;;;;;;19.26;100.00;100793.03;5007109;28;20241;-61
2023/08/27 07:43:36;;;;;;;2.05;1.10;;;;;;;19.39;100.00;100785.81;5006371;28;20121;-62
2023/08/27 07:46:01;;;;;;;2.58;1.20;;;;;;;19.68;100.00;100788.19;5005832;28;20025;-64
2023/08/27 07:48:27;;;;;;;1.67;0.73;;;;;;;19.57;100.00;100790.81;5005303;28;20077;-62
2023/08/27 07:50:53;;;;;;;2.38;1.25;;;;;;;19.69;100.00;100786.41;5010598;28;20022;-62
2023/08/27 07:53:18;;;;;;;3.90;1.08;;;;;;;19.75;100.00;100782.41;5027514;28;20489;-61
2023/08/27 07:55:44;;;;;;;4.00;0.98;;;;;;;19.84;99.85;100789.75;5004596;28;20117;-61
2023/08/27 07:58:09;;;;;;;1.05;0.90;;;;;;;19.91;100.00;100791.00;5007661;28;20088;-62
2023/08/27 08:00:35;;;;;;;1.60;0.93;;;;;;;19.90;100.00;100793.78;5005594;28;20494;-63
2023/08/27 08:03:00;;;;;;;2.13;0.85;;;;;;;19.97;97.46;100789.69;4988839;28;20566;-61
2023/08/27 08:05:25;;;;;;;1.20;0.73;;;;;;;20.04;95.37;100796.31;5005418;28;20042;-63
2023/08/27 08:07:52;;;;;;;1.05;0.93;;;;;;;19.92;97.16;100795.38;5007867;28;20030;-62
2023/08/27 08:10:17;;;;;;;0.82;0.70;;;;;;;19.79;96.77;100798.13;5006088;28;20026;-65
2023/08/27 08:12:43;;;;;;;2.15;0.88;;;;;;;19.54;94.69;100807.06;5024888;28;20091;-64
2023/08/27 08:15:09;;;;;;;0.80;0.63;;;;;;;19.45;94.29;100814.78;5026599;28;20025;-63
2023/08/27 08:17:35;;;;;;;1.52;0.63;;;;;;;19.42;98.21;100808.81;5012408;28;20366;-63
2023/08/27 08:20:00;;;;;;;1.67;0.80;;;;;;;19.50;99.66;100805.59;5006684;28;20168;-62
2023/08/27 08:22:25;;;;;;;2.10;0.80;;;;;;;19.73;97.77;100811.06;5005573;28;20033;-62
2023/08/27 08:24:51;;;;;;;0.98;0.98;;;;;;;19.79;99.18;100810.63;5005880;28;20022;-64
2023/08/27 08:27:16;;;;;;;2.28;0.80;;;;;;;19.66;96.96;100819.53;5006086;28;20022;-64
2023/08/27 08:29:41;;;;;;;1.52;0.70;;;;;;;19.43;95.90;100814.06;5003884;28;20049;-63
2023/08/27 08:32:07;;;;;;;1.13;0.80;;;;;;;18.98;94.74;100811.84;5005363;28;20029;-64
2023/08/27 08:34:32;;;;;;;1.33;0.90;;;;;;;18.71;96.38;100809.25;5006240;28;20022;-63
2023/08/27 08:37:00;;;;;;;0.70;0.70;;;;;;;18.71;96.78;100818.13;5004708;28;20018;-60
2023/08/27 08:39:25;;;;;;;0.63;0.60;;;;;;;18.84;nan;100815.47;5005006;28;20467;-62
2023/08/27 08:42:08;;;;;;;1.52;0.70;;;;;;;18.92;97.62;100820.28;5004233;28;20034;-61
2023/08/27 08:44:46;;;;;;;0.70;0.70;;;;;;;19.19;97.79;100828.19;5004392;28;20030;-63
2023/08/27 08:47:13;;;;;;;0.60;0.60;;;;;;;19.28;96.81;100829.38;4987354;28;20022;-61
2023/08/27 08:49:42;;;;;;;0.60;0.60;;;;;;;19.33;96.75;100831.72;4989992;28;20032;-62
2023/08/27 08:52:09;;;;;;;1.05;0.45;;;;;;;19.34;95.31;100836.06;4987682;28;20034;-63
2023/08/27 08:54:37;;;;;;;0.98;0.77;;;;;;;19.34;94.63;100837.88;5007149;28;20024;-60
2023/08/27 08:57:03;;;;;;;0.60;0.60;;;;;;;19.40;93.26;100832.09;5004892;28;20022;-61
2023/08/27 08:59:29;;;;;;;1.00;0.70;;;;;;;19.57;93.13;100826.41;4987815;28;20089;-63
2023/08/27 09:01:55;;;;;;;2.05;0.60;;;;;;;19.77;93.20;100828.56;4993704;28;20124;-63
2023/08/27 09:04:21;;;;;;;3.72;0.82;;;;;;;19.78;91.91;100830.31;4987973;28;20455;-62
2023/08/27 09:06:47;;;;;;;0.93;0.60;;;;;;;19.97;90.74;100826.25;5004718;28;20453;-59
2023/08/27 09:09:13;;;;;;;0.93;0.63;;;;;;;20.11;91.40;100834.16;5005429;28;20033;-65
2023/08/27 09:11:38;;;;;;;1.00;0.60;;;;;;;19.98;89.64;100826.16;4993460;28;20033;-62
2023/08/27 09:14:04;;;;;;;0.50;0.50;;;;;;;20.07;88.34;100820.16;5005601;28;20357;-62
2023/08/27 09:16:30;;;;;;;1.08;0.57;;;;;;;19.90;89.85;100828.53;5010199;28;20017;-64
2023/08/27 09:18:56;;;;;;;1.60;0.90;;;;;;;19.57;90.98;100813.03;5006142;28;20133;-61
2023/08/27 09:21:21;;;;;;;1.55;0.88;;;;;;;19.36;90.41;100812.78;5004745;28;20076;-65
2023/08/27 09:23:47;;;;;;;1.75;0.60;;;;;;;19.39;91.15;100815.22;5024919;28;20415;-66
2023/08/27 09:26:14;;;;;;;0.93;0.60;;;;;;;19.23;91.95;100822.66;5007084;28;20070;-65
2023/08/27 09:28:40;;;;;;;1.60;0.73;;;;;;;19.11;93.17;100816.34;5024680;28;20472;-64
2023/08/27 09:31:09;;;;;;;1.38;0.80;;;;;;;18.87;94.86;100809.06;5025735;28;20040;-61
2023/08/27 09:33:35;;;;;;;;;;;;;;;18.72;97.39;100819.00;5024687;28;20068;-63
2023/08/27 09:36:01;;;;;;;0.90;0.70;;;;;;;18.46;98.06;100819.81;5020317;28;19913;-64
2023/08/27 09:38:27;;;;;;;1.90;0.90;;;;;;;18.42;99.04;100832.50;5006726;28;20079;-60
2023/08/27 09:40:53;;;;;;;3.53;0.95;;;;;;;18.25;99.31;100832.78;5019350;28;20014;-61
2023/08/27 09:43:18;;;;;;;0.93;0.70;;;;;;;17.84;100.00;100832.72;4992596;28;20037;-65
2023/08/27 09:45:43;;;;;;;1.50;0.63;;;;;;;17.81;100.00;100835.56;5016946;28;20636;-59
2023/08/27 09:48:09;;;;;;;2.22;0.50;;;;;;;17.56;100.00;100834.50;5028782;28;20029;-62
2023/08/27 09:50:34;;;;;;;0.68;0.60;;;;;;;17.51;100.00;100839.25;5028115;28;20022;-64
2023/08/27 09:53:07;;;;;;;0.70;0.70;;;;;;;17.29;100.00;100835.28;5028546;28;20124;-66
2023/08/27 09:55:33;;;;;;;1.17;0.70;;;;;;;17.08;100.00;100834.81;5023126;28;20053;-65
2023/08/27 09:57:59;;;;;;;1.73;0.70;;;;;;;16.90;100.00;100835.81;4991013;28;20026;-61
2023/08/27 10:00:26;;;;;;;1.52;0.80;;;;;;;16.88;100.00;100837.72;5027581;28;20026;-65
2023/08/27 10:02:53;;;;;;;2.53;0.80;;;;;;;16.75;100.00;100844.72;5019077;28;20030;-59
2023/08/27 10:05:27;;;;;;;1.17;0.55;;;;;;;16.78;100.00;100847.19;4992444;28;20046;-64
2023/08/27 10:08:00;;;;;;;2.28;1.17;;;;;;;16.67;100.00;100848.69;5004181;28;20109;-61
2023/08/27 10:10:27;;;;;;;2.15;0.80;;;;;;;16.65;100.00;100844.44;4989373;28;20030;-67
2023/08/27 10:12:53;;;;;;;1.45;0.70;;;;;;;16.61;100.00;100834.91;4989568;28;20026;-59
2023/08/27 10:15:19;;;;;;;2.45;0.60;;;;;;;16.52;100.00;100831.84;4986080;28;20105;-63
2023/08/27 10:17:45;;;;;;;1.20;0.80;;;;;;;16.59;100.00;100823.50;4998704;28;20019;-63
2023/08/27 10:20:11;;;;;;;1.95;0.90;;;;;;;16.47;100.00;100825.09;4993839;28;20034;-63
2023/08/27 10:22:37;;;;;;;0.90;0.80;;;;;;;16.58;100.00;100827.97;5008724;28;20538;-63
2023/08/27 10:25:04;;;;;;;2.50;0.80;;;;;;;16.74;100.00;100829.72;5008577;28;20022;-63
2023/08/27 10:27:29;;;;;;;2.83;1.08;;;;;;;16.84;100.00;100838.00;4991506;28;20029;-65
2023/08/27 10:29:56;;;;;;;6.93;1.00;;;;;;;17.07;100.00;100833.09;5008067;28;20026;-61
2023/08/27 10:32:21;;;;;;;0.85;0.82;;;;;;;17.25;100.00;100842.59;4991776;28;20030;-67
2023/08/27 10:34:46;;;;;;;2.20;1.05;;;;;;;17.46;100.00;100849.34;5008169;28;20057;-67
2023/08/27 10:37:12;;;;;;;1.13;0.73;;;;;;;17.77;100.00;100842.06;5008517;28;20030;-63
2023/08/27 10:39:38;;;;;;;2.78;0.93;;;;;;;18.08;100.00;100845.38;4990329;28;20058;-61
2023/08/27 10:42:04;;;;;;;0.98;0.70;;;;;;;18.38;100.00;100855.00;4987652;28;20538;-60
2023/08/27 10:44:30;;;;;;;5.00;1.20;;;;;;;18.58;100.00;100862.63;4988179;28;20457;-64
2023/08/27 10:47:14;;;;;;;1.75;0.90;;;;;;;18.81;100.00;100866.38;4999944;28;20014;-66
2023/08/27 10:49:41;;;;;;;2.70;1.17;;;;;;;19.23;100.00;100863.53;5008328;28;20034;-65
2023/08/27 10:52:13;;;;;;;2.63;1.00;;;;;;;19.40;100.00;100865.03;5006939;28;20021;-66
2023/08/27 10:54:39;;;;;;;4.80;1.08;;;;;;;19.76;100.00;100873.19;5007692;28;20076;-64
2023/08/27 10:57:20;;;;;;;1.63;1.00;;;;;;;20.40;98.30;100873.03;5007925;28;20022;-66
2023/08/27 10:59:46;;;;;;;4.22;1.00;;;;;;;20.57;96.04;100882.47;5007558;28;20057;-67
2023/08/27 11:02:12;;;;;;;4.82;1.30;;;;;;;20.17;95.77;100886.34;4990445;28;20603;-58
2023/08/27 11:04:39;;;;;;;4.70;0.80;;;;;;;20.40;96.05;100889.97;4988404;28;20042;-66
2023/08/27 11:07:14;;;;;;;2.85;1.33;;;;;;;20.67;95.66;100880.81;4996894;28;20372;-63
2023/08/27 11:09:47;;;;;;;6.35;1.45;;;;;;;20.65;99.25;100873.88;4991207;28;20030;-66
2023/08/27 11:12:26;;;;;;;5.63;1.42;;;;;;;20.79;95.08;100878.16;4999375;28;20103;-66